createdAt,value
2019-05-13T00:00:39.953Z,99.90
2019-05-13T00:03:13.902Z,99.90
2019-05-13T00:05:46.650Z,99.90
2019-05-13T00:08:21.729Z,99.90
2019-05-13T00:10:54.280Z,99.90
2019-05-13T00:13:27.031Z,99.90
2019-05-13T00:16:00.952Z,99.90
2019-05-13T00:18:34.726Z,99.90
2019-05-13T00:21:08.680Z,99.90
2019-05-13T00:23:41.305Z,99.90
2019-05-13T00:26:14.261Z,99.90
2019-05-13T00:28:47.077Z,99.90
2019-05-13T00:31:19.929Z,99.90
2019-05-13T00:33:53.255Z,99.90
2019-05-13T00:36:26.187Z,99.90
2019-05-13T00:38:58.860Z,99.90
2019-05-13T00:41:33.637Z,99.90
2019-05-13T00:44:07.438Z,99.90
2019-05-13T00:46:40.122Z,99.90
2019-05-13T00:49:13.417Z,99.90
2019-05-13T00:51:46.516Z,99.90
2019-05-13T00:54:20.321Z,99.90
2019-05-13T00:56:54.819Z,99.90
2019-05-13T00:59:27.632Z,99.90
2019-05-13T01:02:00.377Z,99.90
2019-05-13T01:04:33.911Z,99.90
2019-05-13T01:07:21.095Z,99.90
2019-05-13T01:09:44.289Z,99.90
2019-05-13T01:12:17.335Z,99.90
2019-05-13T01:14:49.954Z,99.90
2019-05-13T01:17:23.619Z,99.90
2019-05-13T01:19:56.495Z,99.90
2019-05-13T01:22:29.273Z,99.90
2019-05-13T01:25:03.934Z,99.90
2019-05-13T01:27:37.869Z,99.90
2019-05-13T01:30:13.454Z,99.90
2019-05-13T01:32:46.383Z,99.90
2019-05-13T01:35:19.023Z,99.90
2019-05-13T01:37:53.932Z,99.90
2019-05-13T01:40:26.692Z,99.90
2019-05-13T01:43:03.557Z,99.90
2019-05-13T01:45:36.530Z,99.90
2019-05-13T01:48:09.293Z,99.90
2019-05-13T01:50:43.797Z,99.90
2019-05-13T01:53:16.730Z,99.90
2019-05-13T01:55:49.553Z,99.90
2019-05-13T01:58:23.570Z,99.90
2019-05-13T02:00:56.509Z,99.90
2019-05-13T02:03:29.222Z,99.90
2019-05-13T02:06:03.811Z,99.90
2019-05-13T02:08:36.577Z,99.90
2019-05-13T02:11:09.287Z,99.90
2019-05-13T02:13:44.686Z,99.90
2019-05-13T02:16:17.543Z,99.90
2019-05-13T02:18:50.356Z,99.90
2019-05-13T02:24:11.066Z,99.90
2019-05-13T02:26:43.965Z,99.90
2019-05-13T02:29:16.773Z,99.90
2019-05-13T02:31:55.240Z,99.90
2019-05-13T02:34:24.260Z,99.90
2019-05-13T02:37:03.063Z,99.90
2019-05-13T02:39:34.382Z,99.90
2019-05-13T02:42:08.392Z,99.90
2019-05-13T02:44:43.690Z,99.90
2019-05-13T02:47:15.709Z,99.90
2019-05-13T02:49:53.062Z,99.90
2019-05-13T02:52:24.638Z,99.90
2019-05-13T02:54:59.263Z,99.90
2019-05-13T02:57:32.919Z,99.90
2019-05-13T03:00:05.788Z,99.90
2019-05-13T03:02:38.836Z,99.90
2019-05-13T03:05:13.622Z,99.90
2019-05-13T03:07:46.644Z,99.90
2019-05-13T03:10:22.176Z,99.90
2019-05-13T03:12:55.647Z,99.90
2019-05-13T03:15:32.791Z,99.90
2019-05-13T03:18:06.392Z,99.90
2019-05-13T03:20:39.136Z,99.90
2019-05-13T03:23:13.877Z,99.90
2019-05-13T03:25:46.748Z,99.90
2019-05-13T03:28:22.036Z,99.90
2019-05-13T03:30:56.503Z,99.90
2019-05-13T03:33:28.938Z,99.90
2019-05-13T03:36:06.289Z,99.90
2019-05-13T03:38:58.115Z,99.90
2019-05-13T03:41:13.705Z,99.90
2019-05-13T03:43:48.834Z,99.90
2019-05-13T03:46:23.067Z,99.90
2019-05-13T03:49:02.461Z,99.90
2019-05-13T03:51:35.558Z,99.90
2019-05-13T03:54:08.862Z,99.90
2019-05-13T03:56:42.647Z,99.90
2019-05-13T03:59:15.658Z,99.90
2019-05-13T04:01:52.479Z,99.90
2019-05-13T04:04:24.234Z,99.90
2019-05-13T04:06:58.617Z,99.90
2019-05-13T04:09:36.145Z,99.90
2019-05-13T04:12:06.282Z,99.90
2019-05-13T04:14:42.367Z,99.90
2019-05-13T04:17:14.684Z,99.90
2019-05-13T04:19:47.556Z,99.90
2019-05-13T04:22:22.949Z,99.90
2019-05-13T04:24:56.169Z,99.90
2019-05-13T04:27:32.739Z,99.90
2019-05-13T04:30:06.897Z,99.90
2019-05-13T04:32:39.647Z,99.90
2019-05-13T04:35:12.619Z,99.90
2019-05-13T04:37:45.623Z,99.90
2019-05-13T04:40:18.451Z,99.90
2019-05-13T04:42:53.623Z,99.90
2019-05-13T04:45:25.819Z,99.90
2019-05-13T04:47:58.523Z,99.90
2019-05-13T04:50:32.929Z,99.90
2019-05-13T04:53:05.933Z,99.90
2019-05-13T04:55:42.522Z,99.90
2019-05-13T04:58:13.633Z,99.90
2019-05-13T05:01:08.729Z,99.90
2019-05-13T05:03:52.791Z,99.90
2019-05-13T05:06:37.168Z,99.90
2019-05-13T05:10:26.311Z,99.90
2019-05-13T05:12:58.523Z,99.90
2019-05-13T05:16:03.343Z,99.90
2019-05-13T05:19:04.394Z,99.90
2019-05-13T05:21:57.550Z,99.90
2019-05-13T05:24:48.428Z,99.90
2019-05-13T05:27:38.172Z,99.90
2019-05-13T05:30:57.689Z,99.90
2019-05-13T05:33:55.013Z,99.90
2019-05-13T05:36:52.493Z,99.90
2019-05-13T05:39:26.242Z,99.90
2019-05-13T05:42:02.021Z,99.90
2019-05-13T05:44:36.035Z,99.90
2019-05-13T05:47:11.229Z,99.90
2019-05-13T05:49:47.569Z,99.90
2019-05-13T05:52:21.349Z,99.90
2019-05-13T05:54:54.839Z,99.90
2019-05-13T05:57:31.419Z,99.90
2019-05-13T06:00:05.267Z,99.90
2019-05-13T06:02:42.512Z,99.90
2019-05-13T06:05:15.515Z,99.90
2019-05-13T06:07:48.618Z,99.90
2019-05-13T06:10:22.522Z,99.90
2019-05-13T06:12:55.796Z,99.90
2019-05-13T06:15:31.457Z,99.90
2019-05-13T06:18:04.328Z,99.90
2019-05-13T06:20:38.861Z,99.90
2019-05-13T06:23:14.966Z,99.90
2019-05-13T06:25:49.025Z,99.90
2019-05-13T06:28:23.036Z,99.90
2019-05-13T06:30:55.627Z,99.90
2019-05-13T06:33:42.200Z,99.90
2019-05-13T06:36:15.068Z,99.90
2019-05-13T06:38:48.061Z,99.90
2019-05-13T06:41:22.012Z,99.90
2019-05-13T06:43:56.694Z,99.90
2019-05-13T06:46:32.311Z,99.90
2019-05-13T06:49:05.256Z,99.90
2019-05-13T06:51:37.961Z,99.90
2019-05-13T06:54:11.393Z,99.90
2019-05-13T06:56:44.248Z,99.90
2019-05-13T06:59:18.955Z,99.90
2019-05-13T07:01:51.626Z,99.90
2019-05-13T07:04:24.527Z,99.90
2019-05-13T07:07:10.107Z,99.90
2019-05-13T07:09:32.521Z,99.90
2019-05-13T07:12:06.846Z,99.90
2019-05-13T07:14:41.362Z,99.90
2019-05-13T07:17:14.277Z,99.90
2019-05-13T07:19:47.195Z,99.90
2019-05-13T07:22:23.073Z,99.90
2019-05-13T07:24:56.446Z,99.90
2019-05-13T07:27:31.563Z,99.90
2019-05-13T07:30:05.576Z,99.90
2019-05-13T07:32:41.889Z,99.90
2019-05-13T07:35:15.631Z,99.90
2019-05-13T07:37:48.491Z,99.90
2019-05-13T07:40:22.324Z,99.90
2019-05-13T07:42:55.176Z,99.90
2019-05-13T07:45:27.930Z,99.90
2019-05-13T07:48:01.442Z,99.90
2019-05-13T07:50:34.386Z,99.90
2019-05-13T07:53:07.342Z,99.90
2019-05-13T07:55:42.094Z,99.90
2019-05-13T07:58:14.661Z,99.90
2019-05-13T08:00:47.515Z,99.70
2019-05-13T08:03:21.389Z,98.40
2019-05-13T08:05:54.673Z,92.90
2019-05-13T08:08:28.691Z,87.10
2019-05-13T08:11:02.771Z,91.20
2019-05-13T08:13:37.191Z,85.70
2019-05-13T08:16:12.281Z,84.60
2019-05-13T08:18:44.498Z,84.20
2019-05-13T08:21:17.127Z,81.90
2019-05-13T08:23:52.248Z,84.00
2019-05-13T08:26:25.454Z,77.00
2019-05-13T08:29:03.108Z,77.90
2019-05-13T08:31:32.678Z,74.20
2019-05-13T08:34:05.385Z,71.70
2019-05-13T08:36:39.589Z,72.70
2019-05-13T08:39:15.032Z,70.50
2019-05-13T08:41:47.732Z,63.00
2019-05-13T08:44:21.663Z,59.10
2019-05-13T08:46:56.007Z,55.30
2019-05-13T08:49:32.575Z,52.90
2019-05-13T08:52:05.478Z,48.30
2019-05-13T08:54:38.144Z,52.50
2019-05-13T08:57:11.851Z,52.80
2019-05-13T08:59:44.817Z,56.20
2019-05-13T09:02:17.741Z,51.90
2019-05-13T09:04:51.449Z,54.40
2019-05-13T09:07:24.599Z,54.50
2019-05-13T09:09:57.213Z,54.30
2019-05-13T09:12:35.631Z,50.50
2019-05-13T09:15:05.688Z,47.50
2019-05-13T09:17:42.483Z,45.90
2019-05-13T09:20:15.066Z,47.20
2019-05-13T09:22:47.772Z,49.40
2019-05-13T09:25:21.528Z,51.10
2019-05-13T09:27:54.403Z,51.10
2019-05-13T09:30:27.457Z,47.80
2019-05-13T09:33:02.059Z,48.80
2019-05-13T09:35:36.001Z,48.60
2019-05-13T09:38:08.709Z,47.70
2019-05-13T09:40:42.313Z,47.00
2019-05-13T09:43:15.196Z,46.30
2019-05-13T09:45:47.767Z,46.90
2019-05-13T09:48:22.437Z,44.90
2019-05-13T09:50:55.653Z,45.10
2019-05-13T09:53:28.657Z,44.60
2019-05-13T09:56:02.698Z,45.50
2019-05-13T09:58:35.557Z,42.30
2019-05-13T10:01:12.353Z,44.90
2019-05-13T10:03:53.729Z,40.30
2019-05-13T10:06:21.874Z,41.00
2019-05-13T10:08:54.198Z,38.70
2019-05-13T10:11:28.058Z,40.50
2019-05-13T10:14:02.060Z,42.40
2019-05-13T10:16:37.227Z,42.30
2019-05-13T10:19:12.387Z,42.30
2019-05-13T10:21:44.672Z,40.60
2019-05-13T10:24:17.797Z,40.60
2019-05-13T10:26:51.501Z,37.40
2019-05-13T10:29:26.357Z,38.00
2019-05-13T10:32:02.116Z,41.20
2019-05-13T10:34:38.053Z,40.30
2019-05-13T10:37:11.508Z,44.70
2019-05-13T10:39:44.362Z,45.20
2019-05-13T10:42:18.153Z,45.10
2019-05-13T10:44:52.480Z,43.60
2019-05-13T10:47:28.892Z,44.90
2019-05-13T10:50:02.805Z,45.90
2019-05-13T10:52:36.134Z,43.90
2019-05-13T10:55:09.083Z,43.10
2019-05-13T10:57:42.486Z,44.10
2019-05-13T11:00:15.502Z,41.90
2019-05-13T11:02:48.360Z,43.70
2019-05-13T11:05:22.812Z,41.10
2019-05-13T11:07:57.440Z,40.60
2019-05-13T11:10:32.566Z,41.80
2019-05-13T11:13:06.221Z,40.20
2019-05-13T11:15:44.808Z,39.80
2019-05-13T11:18:19.301Z,39.40
2019-05-13T11:20:49.698Z,37.70
2019-05-13T11:23:23.427Z,40.00
2019-05-13T11:25:56.405Z,38.70
2019-05-13T11:28:29.053Z,37.90
2019-05-13T11:31:03.862Z,37.00
2019-05-13T11:33:37.926Z,36.80
2019-05-13T11:36:12.867Z,35.40
2019-05-13T11:38:45.638Z,36.10
2019-05-13T11:41:22.928Z,37.00
2019-05-13T11:44:11.917Z,33.80
2019-05-13T11:46:29.361Z,34.10
2019-05-13T11:49:03.219Z,33.40
2019-05-13T11:51:37.232Z,35.20
2019-05-13T11:54:13.549Z,34.20
2019-05-13T11:56:49.719Z,34.50
2019-05-13T11:59:21.961Z,34.50
2019-05-13T12:01:54.289Z,34.50
2019-05-13T12:04:29.229Z,32.50
2019-05-13T12:07:03.602Z,33.00
2019-05-13T12:09:37.868Z,32.60
2019-05-13T12:12:13.420Z,32.70
2019-05-13T12:15:16.233Z,32.40
2019-05-13T12:17:22.465Z,30.50
2019-05-13T12:19:56.771Z,31.00
2019-05-13T12:22:29.763Z,30.20
2019-05-13T12:25:03.028Z,31.50
2019-05-13T12:27:36.969Z,31.70
2019-05-13T12:30:12.010Z,28.90
2019-05-13T12:32:45.506Z,30.00
2019-05-13T12:35:18.085Z,30.20
2019-05-13T12:37:53.298Z,30.40
2019-05-13T12:40:25.685Z,31.50
2019-05-13T12:43:01.314Z,30.70
2019-05-13T12:45:33.391Z,29.80
2019-05-13T12:48:06.390Z,32.00
2019-05-13T12:50:42.482Z,29.50
2019-05-13T12:53:13.600Z,30.00
2019-05-13T12:55:52.680Z,32.00
2019-05-13T13:00:55.715Z,31.00
2019-05-13T13:03:32.124Z,32.70
2019-05-13T13:08:47.400Z,31.90
2019-05-13T13:11:13.581Z,32.60
2019-05-13T13:13:59.082Z,30.10
2019-05-13T13:16:21.030Z,29.60
2019-05-13T13:18:55.593Z,31.00
2019-05-13T13:21:33.630Z,29.90
2019-05-13T13:24:04.722Z,31.00
2019-05-13T13:26:37.670Z,30.60
2019-05-13T13:29:10.695Z,31.20
2019-05-13T13:31:44.846Z,32.40
2019-05-13T13:34:18.890Z,31.50
2019-05-13T13:36:52.657Z,31.00
2019-05-13T13:39:25.823Z,30.20
2019-05-13T13:42:05.649Z,29.80
2019-05-13T13:44:38.890Z,29.40
2019-05-13T13:47:14.829Z,30.00
2019-05-13T13:49:46.312Z,31.10
2019-05-13T13:52:19.066Z,31.60
2019-05-13T13:55:02.015Z,31.00
2019-05-13T13:57:27.554Z,31.10
2019-05-13T14:02:37.316Z,31.80
2019-05-13T14:05:12.579Z,31.80
2019-05-13T14:06:35.510Z,31.30
2019-05-13T14:06:39.633Z,33.10
2019-05-13T14:07:45.151Z,29.60
2019-05-13T14:10:18.182Z,29.30
2019-05-13T14:12:52.485Z,29.10
2019-05-13T14:15:25.622Z,29.80
2019-05-13T14:17:58.587Z,29.90
2019-05-13T14:20:32.732Z,29.80
2019-05-13T14:23:05.657Z,29.90
2019-05-13T14:25:38.441Z,29.70
2019-05-13T14:28:11.289Z,30.20
2019-05-13T14:30:44.067Z,29.40
2019-05-13T14:33:16.852Z,29.00
2019-05-13T14:35:49.631Z,29.70
2019-05-13T14:38:22.618Z,29.10
2019-05-13T14:40:55.840Z,28.70
2019-05-13T14:43:28.728Z,28.50
2019-05-13T14:46:02.290Z,29.20
2019-05-13T14:48:37.243Z,27.90
2019-05-13T14:51:12.143Z,27.90
2019-05-13T14:53:44.632Z,28.00
2019-05-13T14:56:17.357Z,28.20
2019-05-13T14:58:52.021Z,28.30
2019-05-13T15:01:24.778Z,27.30
2019-05-13T15:03:57.543Z,26.90
2019-05-13T15:06:32.731Z,26.10
2019-05-13T15:09:06.191Z,27.20
2019-05-13T15:11:58.449Z,28.50
2019-05-13T15:14:31.889Z,28.50
2019-05-13T15:17:07.455Z,27.70
2019-05-13T15:19:39.857Z,27.60
2019-05-13T15:22:15.996Z,26.80
2019-05-13T15:24:49.009Z,26.40
2019-05-13T15:27:22.279Z,26.70
2019-05-13T15:29:56.413Z,26.50
2019-05-13T15:32:31.927Z,26.80
2019-05-13T15:35:04.619Z,26.50
2019-05-13T15:37:37.497Z,27.20
2019-05-13T15:40:11.668Z,26.80
2019-05-13T15:42:44.551Z,26.60
2019-05-13T15:45:17.297Z,26.80
2019-05-13T15:47:51.607Z,27.00
2019-05-13T15:50:24.641Z,26.90
2019-05-13T15:52:57.536Z,27.30
2019-05-13T15:55:31.622Z,27.10
2019-05-13T15:58:04.433Z,26.40
2019-05-13T16:00:37.417Z,25.60
2019-05-13T16:03:12.211Z,26.20
2019-05-13T16:05:45.023Z,26.30
2019-05-13T16:08:17.789Z,26.40
2019-05-13T16:10:53.207Z,26.10
2019-05-13T16:13:25.246Z,26.20
2019-05-13T16:15:58.264Z,26.60
2019-05-13T16:18:31.876Z,26.10
2019-05-13T16:21:04.756Z,25.70
2019-05-13T16:23:38.848Z,25.60
2019-05-13T16:26:11.721Z,25.30
2019-05-13T16:28:47.007Z,25.30
2019-05-13T16:31:19.670Z,25.00
2019-05-13T16:33:52.402Z,25.80
2019-05-13T16:36:25.202Z,25.90
2019-05-13T16:39:02.069Z,26.00
2019-05-13T16:41:36.172Z,25.90
2019-05-13T16:44:11.647Z,25.70
2019-05-13T16:46:44.774Z,26.40
2019-05-13T16:49:18.373Z,25.70
2019-05-13T16:51:51.754Z,26.30
2019-05-13T16:54:27.183Z,26.30
2019-05-13T16:57:01.245Z,26.20
2019-05-13T16:59:34.057Z,25.80
2019-05-13T17:02:06.802Z,25.50
2019-05-13T17:04:41.438Z,26.20
2019-05-13T17:07:14.732Z,26.30
2019-05-13T17:09:47.687Z,26.10
2019-05-13T17:12:21.250Z,25.90
2019-05-13T17:14:54.300Z,26.60
2019-05-13T17:17:27.168Z,26.70
2019-05-13T17:20:02.218Z,26.60
2019-05-13T17:22:34.663Z,26.90
2019-05-13T17:25:12.351Z,26.70
2019-05-13T17:27:44.523Z,26.80
2019-05-13T17:30:17.672Z,26.70
2019-05-13T17:32:51.576Z,26.90
2019-05-13T17:35:25.792Z,26.70
2019-05-13T17:37:58.633Z,26.70
2019-05-13T17:40:34.484Z,27.00
2019-05-13T17:43:11.940Z,27.00
2019-05-13T17:45:52.148Z,27.30
2019-05-13T17:48:29.332Z,27.90
2019-05-13T17:51:01.307Z,27.40
2019-05-13T17:53:35.568Z,28.20
2019-05-13T17:56:11.182Z,28.50
2019-05-13T17:58:44.103Z,28.90
2019-05-13T18:01:16.879Z,28.30
2019-05-13T18:03:51.758Z,29.00
2019-05-13T18:06:24.849Z,29.20
2019-05-13T18:08:57.472Z,29.30
2019-05-13T18:11:30.517Z,29.10
2019-05-13T18:14:03.748Z,30.20
2019-05-13T18:16:36.534Z,29.30
2019-05-13T18:19:11.730Z,30.00
2019-05-13T18:21:44.110Z,31.00
2019-05-13T18:24:17.014Z,31.80
2019-05-13T18:26:52.030Z,31.60
2019-05-13T18:29:24.300Z,31.90
2019-05-13T18:31:56.937Z,33.20
2019-05-13T18:34:32.147Z,34.60
2019-05-13T18:37:06.927Z,35.20
2019-05-13T18:39:41.635Z,36.40
2019-05-13T18:42:16.179Z,37.70
2019-05-13T18:44:51.271Z,38.20
2019-05-13T18:47:23.888Z,39.10
2019-05-13T18:49:56.513Z,40.80
2019-05-13T18:52:31.340Z,41.30
2019-05-13T18:55:06.224Z,42.30
2019-05-13T18:57:38.718Z,43.00
2019-05-13T19:00:11.719Z,44.00
2019-05-13T19:02:44.398Z,44.90
2019-05-13T19:05:16.982Z,46.20
2019-05-13T19:07:51.267Z,47.20
2019-05-13T19:10:24.285Z,48.30
2019-05-13T19:12:57.959Z,49.80
2019-05-13T19:15:31.718Z,51.20
2019-05-13T19:18:04.591Z,53.20
2019-05-13T19:20:37.301Z,53.70
2019-05-13T19:23:11.847Z,55.00
2019-05-13T19:25:44.417Z,57.40
2019-05-13T19:28:17.041Z,61.30
2019-05-13T19:30:51.558Z,66.60
2019-05-13T19:33:26.530Z,72.00
2019-05-13T19:36:01.580Z,74.00
2019-05-13T19:38:35.555Z,76.40
2019-05-13T19:41:08.351Z,77.70
2019-05-13T19:43:42.502Z,81.30
2019-05-13T19:46:15.301Z,83.50
2019-05-13T19:48:49.182Z,86.10
2019-05-13T19:51:23.275Z,87.10
2019-05-13T19:53:56.058Z,89.90
2019-05-13T19:56:28.813Z,91.50
2019-05-13T19:59:01.705Z,91.80
2019-05-13T20:01:34.591Z,93.20
2019-05-13T20:04:07.177Z,93.30
2019-05-13T20:06:41.471Z,92.60
2019-05-13T20:09:14.576Z,93.60
2019-05-13T20:11:47.603Z,95.60
2019-05-13T20:14:22.296Z,94.70
2019-05-13T20:16:55.042Z,96.00
2019-05-13T20:19:28.064Z,94.90
2019-05-13T20:22:02.685Z,95.20
2019-05-13T20:24:35.351Z,94.10
2019-05-13T20:27:08.024Z,95.20
2019-05-13T20:29:41.725Z,95.10
2019-05-13T20:32:14.630Z,96.00
2019-05-13T20:34:51.373Z,95.10
2019-05-13T20:37:25.865Z,95.50
2019-05-13T20:39:58.637Z,94.60
2019-05-13T20:42:31.412Z,95.40
2019-05-13T20:45:04.657Z,95.60
2019-05-13T20:47:37.655Z,95.50
2019-05-13T20:50:12.356Z,95.60
2019-05-13T20:52:45.311Z,96.00
2019-05-13T20:55:18.016Z,94.10
2019-05-13T20:57:53.150Z,95.10
2019-05-13T21:00:25.367Z,94.00
2019-05-13T21:02:58.167Z,93.10
2019-05-13T21:05:32.027Z,93.00
2019-05-13T21:08:05.040Z,92.40
2019-05-13T21:10:37.938Z,92.40
2019-05-13T21:13:12.536Z,92.60
2019-05-13T21:15:46.510Z,91.90
2019-05-13T21:18:19.166Z,92.40
2019-05-13T21:20:51.865Z,92.10
2019-05-13T21:23:24.590Z,93.00
2019-05-13T21:25:58.394Z,92.50
2019-05-13T21:28:31.195Z,93.20
2019-05-13T21:31:05.302Z,92.80
2019-05-13T21:33:37.992Z,93.30
2019-05-13T21:36:12.286Z,93.00
2019-05-13T21:38:46.563Z,94.50
2019-05-13T21:41:21.159Z,94.60
2019-05-13T21:43:53.993Z,95.00
2019-05-13T21:46:26.826Z,95.10
2019-05-13T21:49:01.063Z,95.40
2019-05-13T21:51:34.049Z,95.30
2019-05-13T21:54:06.797Z,96.10
2019-05-13T21:56:39.446Z,95.80
2019-05-13T21:59:12.213Z,96.10
2019-05-13T22:01:45.082Z,96.20
2019-05-13T22:04:21.497Z,96.00
2019-05-13T22:06:54.518Z,96.60
2019-05-13T22:09:27.263Z,96.40
2019-05-13T22:12:01.836Z,96.60
2019-05-13T22:14:34.533Z,96.70
2019-05-13T22:17:07.127Z,97.10
2019-05-13T22:19:41.937Z,97.40
2019-05-13T22:22:14.982Z,98.20
2019-05-13T22:24:47.753Z,97.80
2019-05-13T22:27:21.867Z,98.10
2019-05-13T22:29:54.951Z,97.70
2019-05-13T22:32:27.672Z,97.80
2019-05-13T22:35:01.934Z,98.60
2019-05-13T22:37:34.958Z,97.90
2019-05-13T22:40:07.748Z,98.20
2019-05-13T22:42:41.499Z,98.50
2019-05-13T22:45:14.642Z,98.40
2019-05-13T22:47:47.387Z,98.90
2019-05-13T22:50:21.974Z,99.30
2019-05-13T22:52:54.807Z,99.00
2019-05-13T22:55:31.115Z,99.40
2019-05-13T22:58:03.904Z,99.90
2019-05-13T23:00:36.459Z,99.90
2019-05-13T23:03:09.235Z,99.90
2019-05-13T23:05:41.883Z,99.90
2019-05-13T23:08:14.524Z,99.90
2019-05-13T23:10:51.421Z,99.90
2019-05-13T23:13:24.457Z,99.90
2019-05-13T23:15:57.084Z,99.90
2019-05-13T23:18:31.705Z,99.90
2019-05-13T23:21:04.344Z,99.90
2019-05-13T23:23:37.087Z,99.90
2019-05-13T23:26:11.691Z,99.90
2019-05-13T23:28:44.382Z,99.90
2019-05-13T23:31:17.132Z,99.90
2019-05-13T23:33:49.869Z,99.90
2019-05-13T23:36:22.654Z,99.90
2019-05-13T23:38:55.387Z,99.90
2019-05-13T23:41:27.973Z,99.90
2019-05-13T23:44:01.424Z,99.90
2019-05-13T23:46:34.175Z,99.90
2019-05-13T23:49:06.825Z,99.90
2019-05-13T23:51:41.301Z,99.90
2019-05-13T23:54:14.165Z,99.90
2019-05-13T23:56:46.836Z,99.90
2019-05-13T23:59:21.775Z,99.90
